sensor_id;sensor_type;location;lat;lon;timestamp;P1;durP1;ratioP1;P2;durP2;ratioP2
48623;SDS011;75490;45.802;16.114;2024-02-21T00:01:23;13.05;;;7.25;;
48623;SDS011;75490;45.802;16.114;2024-02-21T00:03:50;13.23;;;6.30;;
48623;SDS011;75490;45.802;16.114;2024-02-21T00:06:17;13.50;;;7.28;;
48623;SDS011;75490;45.802;16.114;2024-02-21T00:08:43;11.88;;;6.50;;
48623;SDS011;75490;45.802;16.114;2024-02-21T00:11:10;13.98;;;7.70;;
48623;SDS011;75490;45.802;16.114;2024-02-21T00:13:37;13.15;;;7.18;;
48623;SDS011;75490;45.802;16.114;2024-02-21T00:16:04;15.43;;;7.18;;
48623;SDS011;75490;45.802;16.114;2024-02-21T00:18:31;13.60;;;7.22;;
48623;SDS011;75490;45.802;16.114;2024-02-21T00:20:58;12.48;;;6.68;;
48623;SDS011;75490;45.802;16.114;2024-02-21T00:23:28;14.57;;;7.07;;
48623;SDS011;75490;45.802;16.114;2024-02-21T00:25:55;11.77;;;7.32;;
48623;SDS011;75490;45.802;16.114;2024-02-21T00:28:21;13.07;;;7.70;;
48623;SDS011;75490;45.802;16.114;2024-02-21T00:30:48;13.68;;;6.57;;
48623;SDS011;75490;45.802;16.114;2024-02-21T00:33:17;14.10;;;7.35;;
48623;SDS011;75490;45.802;16.114;2024-02-21T00:35:43;11.52;;;6.75;;
48623;SDS011;75490;45.802;16.114;2024-02-21T00:38:10;11.75;;;5.75;;
48623;SDS011;75490;45.802;16.114;2024-02-21T00:40:37;11.77;;;6.15;;
48623;SDS011;75490;45.802;16.114;2024-02-21T00:43:04;11.88;;;7.00;;
48623;SDS011;75490;45.802;16.114;2024-02-21T00:45:31;10.48;;;6.15;;
48623;SDS011;75490;45.802;16.114;2024-02-21T00:47:58;11.85;;;6.82;;
48623;SDS011;75490;45.802;16.114;2024-02-21T00:50:25;13.27;;;7.40;;
48623;SDS011;75490;45.802;16.114;2024-02-21T00:52:51;14.68;;;7.38;;
48623;SDS011;75490;45.802;16.114;2024-02-21T00:55:18;13.13;;;8.05;;
48623;SDS011;75490;45.802;16.114;2024-02-21T00:57:45;11.98;;;6.47;;
48623;SDS011;75490;45.802;16.114;2024-02-21T01:00:15;11.85;;;7.40;;
48623;SDS011;75490;45.802;16.114;2024-02-21T01:02:42;10.30;;;6.13;;
48623;SDS011;75490;45.802;16.114;2024-02-21T01:05:09;13.68;;;6.32;;
48623;SDS011;75490;45.802;16.114;2024-02-21T01:07:36;14.98;;;7.20;;
48623;SDS011;75490;45.802;16.114;2024-02-21T01:10:02;14.23;;;6.90;;
48623;SDS011;75490;45.802;16.114;2024-02-21T01:12:29;14.18;;;7.93;;
48623;SDS011;75490;45.802;16.114;2024-02-21T01:14:56;14.55;;;7.40;;
48623;SDS011;75490;45.802;16.114;2024-02-21T01:17:23;12.45;;;7.05;;
48623;SDS011;75490;45.802;16.114;2024-02-21T01:19:50;14.27;;;6.70;;
48623;SDS011;75490;45.802;16.114;2024-02-21T01:22:16;12.40;;;6.85;;
48623;SDS011;75490;45.802;16.114;2024-02-21T01:24:44;12.25;;;6.72;;
48623;SDS011;75490;45.802;16.114;2024-02-21T01:27:11;13.80;;;7.47;;
48623;SDS011;75490;45.802;16.114;2024-02-21T01:29:38;13.07;;;7.15;;
48623;SDS011;75490;45.802;16.114;2024-02-21T01:32:05;14.40;;;7.25;;
48623;SDS011;75490;45.802;16.114;2024-02-21T01:34:32;12.32;;;7.82;;
48623;SDS011;75490;45.802;16.114;2024-02-21T01:36:58;14.15;;;7.20;;
48623;SDS011;75490;45.802;16.114;2024-02-21T01:39:26;13.45;;;7.32;;
48623;SDS011;75490;45.802;16.114;2024-02-21T01:41:53;14.15;;;7.68;;
48623;SDS011;75490;45.802;16.114;2024-02-21T01:44:19;15.70;;;8.07;;
48623;SDS011;75490;45.802;16.114;2024-02-21T01:46:46;15.30;;;8.52;;
48623;SDS011;75490;45.802;16.114;2024-02-21T01:49:13;15.95;;;8.85;;
48623;SDS011;75490;45.802;16.114;2024-02-21T01:51:40;15.52;;;8.52;;
48623;SDS011;75490;45.802;16.114;2024-02-21T01:54:07;18.45;;;8.50;;
48623;SDS011;75490;45.802;16.114;2024-02-21T01:56:35;15.93;;;9.05;;
48623;SDS011;75490;45.802;16.114;2024-02-21T01:59:02;14.80;;;8.15;;
48623;SDS011;75490;45.802;16.114;2024-02-21T02:01:29;14.70;;;9.18;;
48623;SDS011;75490;45.802;16.114;2024-02-21T02:03:56;17.08;;;8.75;;
48623;SDS011;75490;45.802;16.114;2024-02-21T02:06:25;16.25;;;8.45;;
48623;SDS011;75490;45.802;16.114;2024-02-21T02:08:52;15.82;;;9.18;;
48623;SDS011;75490;45.802;16.114;2024-02-21T02:11:20;13.73;;;8.05;;
48623;SDS011;75490;45.802;16.114;2024-02-21T02:13:47;17.42;;;8.88;;
48623;SDS011;75490;45.802;16.114;2024-02-21T02:16:14;14.93;;;7.60;;
48623;SDS011;75490;45.802;16.114;2024-02-21T02:18:41;16.90;;;8.95;;
48623;SDS011;75490;45.802;16.114;2024-02-21T02:21:10;14.85;;;8.05;;
48623;SDS011;75490;45.802;16.114;2024-02-21T02:23:48;15.40;;;7.95;;
48623;SDS011;75490;45.802;16.114;2024-02-21T02:26:15;14.70;;;8.32;;
48623;SDS011;75490;45.802;16.114;2024-02-21T02:28:42;14.57;;;8.63;;
48623;SDS011;75490;45.802;16.114;2024-02-21T02:31:08;19.08;;;9.13;;
48623;SDS011;75490;45.802;16.114;2024-02-21T02:33:35;16.83;;;9.23;;
48623;SDS011;75490;45.802;16.114;2024-02-21T02:36:02;14.18;;;8.25;;
48623;SDS011;75490;45.802;16.114;2024-02-21T02:38:29;13.82;;;8.30;;
48623;SDS011;75490;45.802;16.114;2024-02-21T02:40:56;14.50;;;8.73;;
48623;SDS011;75490;45.802;16.114;2024-02-21T02:43:22;15.63;;;8.75;;
48623;SDS011;75490;45.802;16.114;2024-02-21T02:45:49;16.33;;;8.30;;
48623;SDS011;75490;45.802;16.114;2024-02-21T02:48:16;16.77;;;8.45;;
48623;SDS011;75490;45.802;16.114;2024-02-21T02:50:43;15.20;;;9.23;;
48623;SDS011;75490;45.802;16.114;2024-02-21T02:53:09;19.75;;;10.15;;
48623;SDS011;75490;45.802;16.114;2024-02-21T02:55:36;15.23;;;8.77;;
48623;SDS011;75490;45.802;16.114;2024-02-21T02:58:04;17.70;;;8.98;;
48623;SDS011;75490;45.802;16.114;2024-02-21T03:00:30;16.15;;;9.52;;
48623;SDS011;75490;45.802;16.114;2024-02-21T03:02:57;17.85;;;9.25;;
48623;SDS011;75490;45.802;16.114;2024-02-21T03:05:24;16.77;;;9.05;;
48623;SDS011;75490;45.802;16.114;2024-02-21T03:07:51;16.92;;;9.07;;
48623;SDS011;75490;45.802;16.114;2024-02-21T03:10:17;16.77;;;9.52;;
48623;SDS011;75490;45.802;16.114;2024-02-21T03:12:44;17.27;;;8.45;;
48623;SDS011;75490;45.802;16.114;2024-02-21T03:15:11;15.63;;;8.50;;
48623;SDS011;75490;45.802;16.114;2024-02-21T03:17:39;17.48;;;8.20;;
48623;SDS011;75490;45.802;16.114;2024-02-21T03:20:06;16.92;;;9.23;;
48623;SDS011;75490;45.802;16.114;2024-02-21T03:22:36;17.45;;;9.13;;
48623;SDS011;75490;45.802;16.114;2024-02-21T03:25:04;18.75;;;9.73;;
48623;SDS011;75490;45.802;16.114;2024-02-21T03:27:31;16.25;;;8.65;;
48623;SDS011;75490;45.802;16.114;2024-02-21T03:30:02;15.50;;;9.07;;
48623;SDS011;75490;45.802;16.114;2024-02-21T03:32:31;17.13;;;9.75;;
48623;SDS011;75490;45.802;16.114;2024-02-21T03:34:57;16.58;;;9.55;;
48623;SDS011;75490;45.802;16.114;2024-02-21T03:37:24;17.13;;;9.95;;
48623;SDS011;75490;45.802;16.114;2024-02-21T03:39:51;18.35;;;9.90;;
48623;SDS011;75490;45.802;16.114;2024-02-21T03:42:18;18.50;;;10.52;;
48623;SDS011;75490;45.802;16.114;2024-02-21T03:44:45;17.65;;;9.73;;
48623;SDS011;75490;45.802;16.114;2024-02-21T03:47:11;17.90;;;10.02;;
48623;SDS011;75490;45.802;16.114;2024-02-21T03:49:38;16.48;;;10.05;;
48623;SDS011;75490;45.802;16.114;2024-02-21T03:52:05;18.23;;;9.98;;
48623;SDS011;75490;45.802;16.114;2024-02-21T03:54:32;16.38;;;10.00;;
48623;SDS011;75490;45.802;16.114;2024-02-21T03:56:58;19.70;;;11.35;;
48623;SDS011;75490;45.802;16.114;2024-02-21T03:59:25;17.92;;;11.60;;
48623;SDS011;75490;45.802;16.114;2024-02-21T04:01:52;23.75;;;13.25;;
48623;SDS011;75490;45.802;16.114;2024-02-21T04:04:20;28.70;;;14.98;;
48623;SDS011;75490;45.802;16.114;2024-02-21T04:06:47;20.90;;;12.07;;
48623;SDS011;75490;45.802;16.114;2024-02-21T04:09:14;15.88;;;9.30;;
48623;SDS011;75490;45.802;16.114;2024-02-21T04:11:41;16.40;;;7.43;;
48623;SDS011;75490;45.802;16.114;2024-02-21T04:14:08;15.02;;;8.13;;
48623;SDS011;75490;45.802;16.114;2024-02-21T04:16:35;15.95;;;7.90;;
48623;SDS011;75490;45.802;16.114;2024-02-21T04:19:01;14.63;;;8.15;;
48623;SDS011;75490;45.802;16.114;2024-02-21T04:21:28;13.70;;;7.88;;
48623;SDS011;75490;45.802;16.114;2024-02-21T04:23:55;14.02;;;7.43;;
48623;SDS011;75490;45.802;16.114;2024-02-21T04:26:22;12.15;;;6.40;;
48623;SDS011;75490;45.802;16.114;2024-02-21T04:28:48;11.88;;;6.60;;
48623;SDS011;75490;45.802;16.114;2024-02-21T04:31:15;10.85;;;6.07;;
48623;SDS011;75490;45.802;16.114;2024-02-21T04:33:42;10.68;;;5.80;;
48623;SDS011;75490;45.802;16.114;2024-02-21T04:36:09;10.38;;;4.72;;
48623;SDS011;75490;45.802;16.114;2024-02-21T04:38:35;9.88;;;3.75;;
48623;SDS011;75490;45.802;16.114;2024-02-21T04:41:02;8.18;;;3.67;;
48623;SDS011;75490;45.802;16.114;2024-02-21T04:43:29;8.95;;;3.88;;
48623;SDS011;75490;45.802;16.114;2024-02-21T04:45:55;7.47;;;3.65;;
48623;SDS011;75490;45.802;16.114;2024-02-21T04:48:22;7.15;;;3.50;;
48623;SDS011;75490;45.802;16.114;2024-02-21T04:50:49;8.75;;;3.83;;
48623;SDS011;75490;45.802;16.114;2024-02-21T04:53:16;8.82;;;3.10;;
48623;SDS011;75490;45.802;16.114;2024-02-21T04:55:43;6.55;;;3.47;;
48623;SDS011;75490;45.802;16.114;2024-02-21T04:58:09;8.40;;;3.83;;
48623;SDS011;75490;45.802;16.114;2024-02-21T05:00:36;8.18;;;3.80;;
48623;SDS011;75490;45.802;16.114;2024-02-21T05:03:03;6.70;;;3.25;;
48623;SDS011;75490;45.802;16.114;2024-02-21T05:05:30;6.68;;;3.42;;
48623;SDS011;75490;45.802;16.114;2024-02-21T05:07:57;9.35;;;3.90;;
48623;SDS011;75490;45.802;16.114;2024-02-21T05:10:24;8.75;;;3.92;;
48623;SDS011;75490;45.802;16.114;2024-02-21T05:12:51;9.15;;;5.28;;
48623;SDS011;75490;45.802;16.114;2024-02-21T05:15:17;9.68;;;5.40;;
48623;SDS011;75490;45.802;16.114;2024-02-21T05:17:44;9.25;;;5.40;;
48623;SDS011;75490;45.802;16.114;2024-02-21T05:20:11;11.43;;;5.90;;
48623;SDS011;75490;45.802;16.114;2024-02-21T05:22:38;9.32;;;5.32;;
48623;SDS011;75490;45.802;16.114;2024-02-21T05:25:04;10.00;;;5.40;;
48623;SDS011;75490;45.802;16.114;2024-02-21T05:27:32;12.73;;;6.82;;
48623;SDS011;75490;45.802;16.114;2024-02-21T05:29:59;11.82;;;6.72;;
48623;SDS011;75490;45.802;16.114;2024-02-21T05:32:26;10.65;;;6.20;;
48623;SDS011;75490;45.802;16.114;2024-02-21T05:34:53;11.68;;;6.68;;
48623;SDS011;75490;45.802;16.114;2024-02-21T05:37:23;14.23;;;8.00;;
48623;SDS011;75490;45.802;16.114;2024-02-21T05:39:49;13.95;;;8.07;;
48623;SDS011;75490;45.802;16.114;2024-02-21T05:42:17;11.70;;;6.63;;
48623;SDS011;75490;45.802;16.114;2024-02-21T05:44:44;10.75;;;6.28;;
48623;SDS011;75490;45.802;16.114;2024-02-21T05:47:11;12.82;;;6.18;;
48623;SDS011;75490;45.802;16.114;2024-02-21T05:49:41;14.45;;;7.13;;
48623;SDS011;75490;45.802;16.114;2024-02-21T05:52:08;15.43;;;7.90;;
48623;SDS011;75490;45.802;16.114;2024-02-21T05:54:37;18.58;;;7.10;;
48623;SDS011;75490;45.802;16.114;2024-02-21T05:57:05;13.50;;;7.93;;
48623;SDS011;75490;45.802;16.114;2024-02-21T05:59:32;21.20;;;9.73;;
48623;SDS011;75490;45.802;16.114;2024-02-21T06:01:59;26.10;;;13.27;;
48623;SDS011;75490;45.802;16.114;2024-02-21T06:04:26;20.50;;;12.93;;
48623;SDS011;75490;45.802;16.114;2024-02-21T06:06:52;20.98;;;12.07;;
48623;SDS011;75490;45.802;16.114;2024-02-21T06:09:19;21.42;;;12.25;;
48623;SDS011;75490;45.802;16.114;2024-02-21T06:11:46;19.95;;;12.07;;
48623;SDS011;75490;45.802;16.114;2024-02-21T06:14:14;19.48;;;11.00;;
48623;SDS011;75490;45.802;16.114;2024-02-21T06:16:43;20.02;;;10.27;;
48623;SDS011;75490;45.802;16.114;2024-02-21T06:19:10;17.70;;;10.15;;
48623;SDS011;75490;45.802;16.114;2024-02-21T06:21:36;14.02;;;9.18;;
48623;SDS011;75490;45.802;16.114;2024-02-21T06:24:03;18.25;;;10.63;;
48623;SDS011;75490;45.802;16.114;2024-02-21T06:26:30;18.25;;;10.30;;
48623;SDS011;75490;45.802;16.114;2024-02-21T06:28:57;21.65;;;12.23;;
48623;SDS011;75490;45.802;16.114;2024-02-21T06:31:26;19.98;;;12.25;;
48623;SDS011;75490;45.802;16.114;2024-02-21T06:33:55;24.50;;;12.75;;
48623;SDS011;75490;45.802;16.114;2024-02-21T06:36:21;25.00;;;13.32;;
48623;SDS011;75490;45.802;16.114;2024-02-21T06:38:48;21.50;;;12.80;;
48623;SDS011;75490;45.802;16.114;2024-02-21T06:41:18;21.73;;;11.90;;
48623;SDS011;75490;45.802;16.114;2024-02-21T06:43:46;19.70;;;11.20;;
48623;SDS011;75490;45.802;16.114;2024-02-21T06:46:22;23.20;;;11.52;;
48623;SDS011;75490;45.802;16.114;2024-02-21T06:48:53;21.83;;;10.70;;
48623;SDS011;75490;45.802;16.114;2024-02-21T06:51:20;24.83;;;11.40;;
48623;SDS011;75490;45.802;16.114;2024-02-21T06:53:46;21.55;;;11.43;;
48623;SDS011;75490;45.802;16.114;2024-02-21T06:56:13;22.38;;;10.32;;
48623;SDS011;75490;45.802;16.114;2024-02-21T06:58:40;16.80;;;8.77;;
48623;SDS011;75490;45.802;16.114;2024-02-21T07:01:07;21.58;;;9.05;;
48623;SDS011;75490;45.802;16.114;2024-02-21T07:03:34;16.65;;;8.32;;
48623;SDS011;75490;45.802;16.114;2024-02-21T07:06:01;15.20;;;7.75;;
48623;SDS011;75490;45.802;16.114;2024-02-21T07:08:28;16.02;;;7.65;;
48623;SDS011;75490;45.802;16.114;2024-02-21T07:10:55;35.38;;;16.20;;
48623;SDS011;75490;45.802;16.114;2024-02-21T07:13:25;30.98;;;15.85;;
48623;SDS011;75490;45.802;16.114;2024-02-21T07:15:54;34.05;;;17.55;;
48623;SDS011;75490;45.802;16.114;2024-02-21T07:18:21;32.90;;;16.50;;
48623;SDS011;75490;45.802;16.114;2024-02-21T07:20:48;36.00;;;15.75;;
48623;SDS011;75490;45.802;16.114;2024-02-21T07:23:14;34.03;;;18.58;;
48623;SDS011;75490;45.802;16.114;2024-02-21T07:25:41;34.10;;;17.88;;
48623;SDS011;75490;45.802;16.114;2024-02-21T07:28:08;38.83;;;20.23;;
48623;SDS011;75490;45.802;16.114;2024-02-21T07:30:35;37.25;;;19.65;;
48623;SDS011;75490;45.802;16.114;2024-02-21T07:33:02;32.67;;;18.15;;
48623;SDS011;75490;45.802;16.114;2024-02-21T07:35:29;26.67;;;14.45;;
48623;SDS011;75490;45.802;16.114;2024-02-21T07:37:55;21.83;;;12.65;;
48623;SDS011;75490;45.802;16.114;2024-02-21T07:40:22;23.98;;;10.38;;
48623;SDS011;75490;45.802;16.114;2024-02-21T07:42:49;22.27;;;10.77;;
48623;SDS011;75490;45.802;16.114;2024-02-21T07:45:16;22.05;;;10.45;;
48623;SDS011;75490;45.802;16.114;2024-02-21T07:47:45;24.20;;;10.05;;
48623;SDS011;75490;45.802;16.114;2024-02-21T07:50:11;23.92;;;12.48;;
48623;SDS011;75490;45.802;16.114;2024-02-21T07:52:38;33.42;;;16.13;;
48623;SDS011;75490;45.802;16.114;2024-02-21T07:55:05;26.70;;;15.63;;
48623;SDS011;75490;45.802;16.114;2024-02-21T07:57:32;29.67;;;17.80;;
48623;SDS011;75490;45.802;16.114;2024-02-21T07:59:59;27.63;;;16.50;;
48623;SDS011;75490;45.802;16.114;2024-02-21T08:02:25;21.83;;;13.80;;
48623;SDS011;75490;45.802;16.114;2024-02-21T08:04:52;18.23;;;11.15;;
48623;SDS011;75490;45.802;16.114;2024-02-21T08:07:19;19.73;;;11.57;;
48623;SDS011;75490;45.802;16.114;2024-02-21T08:09:46;18.48;;;10.13;;
48623;SDS011;75490;45.802;16.114;2024-02-21T08:12:15;13.32;;;8.25;;
48623;SDS011;75490;45.802;16.114;2024-02-21T08:14:42;13.85;;;7.32;;
48623;SDS011;75490;45.802;16.114;2024-02-21T08:17:09;12.80;;;7.57;;
48623;SDS011;75490;45.802;16.114;2024-02-21T08:19:36;9.77;;;5.60;;
48623;SDS011;75490;45.802;16.114;2024-02-21T08:22:03;11.43;;;5.97;;
48623;SDS011;75490;45.802;16.114;2024-02-21T08:24:30;14.95;;;6.35;;
48623;SDS011;75490;45.802;16.114;2024-02-21T08:26:57;11.55;;;6.47;;
48623;SDS011;75490;45.802;16.114;2024-02-21T08:29:24;11.57;;;6.55;;
48623;SDS011;75490;45.802;16.114;2024-02-21T08:31:57;10.43;;;6.15;;
48623;SDS011;75490;45.802;16.114;2024-02-21T08:34:23;8.80;;;5.55;;
48623;SDS011;75490;45.802;16.114;2024-02-21T08:36:50;10.90;;;6.60;;
48623;SDS011;75490;45.802;16.114;2024-02-21T08:39:17;10.60;;;6.15;;
48623;SDS011;75490;45.802;16.114;2024-02-21T08:41:44;13.20;;;6.72;;
48623;SDS011;75490;45.802;16.114;2024-02-21T08:44:11;10.90;;;6.07;;
48623;SDS011;75490;45.802;16.114;2024-02-21T08:46:38;11.27;;;5.35;;
48623;SDS011;75490;45.802;16.114;2024-02-21T08:49:06;9.95;;;5.55;;
48623;SDS011;75490;45.802;16.114;2024-02-21T08:51:33;8.55;;;4.72;;
48623;SDS011;75490;45.802;16.114;2024-02-21T08:54:01;9.00;;;4.90;;
48623;SDS011;75490;45.802;16.114;2024-02-21T08:56:30;8.27;;;4.40;;
48623;SDS011;75490;45.802;16.114;2024-02-21T08:58:58;7.50;;;4.35;;
48623;SDS011;75490;45.802;16.114;2024-02-21T09:01:26;8.07;;;4.47;;
48623;SDS011;75490;45.802;16.114;2024-02-21T09:03:53;15.30;;;5.60;;
48623;SDS011;75490;45.802;16.114;2024-02-21T09:06:20;9.80;;;5.00;;
48623;SDS011;75490;45.802;16.114;2024-02-21T09:08:48;9.30;;;4.75;;
48623;SDS011;75490;45.802;16.114;2024-02-21T09:11:15;8.18;;;4.63;;
48623;SDS011;75490;45.802;16.114;2024-02-21T09:13:42;6.40;;;3.75;;
48623;SDS011;75490;45.802;16.114;2024-02-21T09:16:09;6.68;;;3.47;;
48623;SDS011;75490;45.802;16.114;2024-02-21T09:18:36;6.82;;;3.65;;
48623;SDS011;75490;45.802;16.114;2024-02-21T09:21:03;6.75;;;2.92;;
48623;SDS011;75490;45.802;16.114;2024-02-21T09:23:30;6.22;;;3.15;;
48623;SDS011;75490;45.802;16.114;2024-02-21T09:25:58;10.02;;;2.90;;
48623;SDS011;75490;45.802;16.114;2024-02-21T09:28:27;7.65;;;4.25;;
48623;SDS011;75490;45.802;16.114;2024-02-21T09:30:53;6.68;;;2.75;;
48623;SDS011;75490;45.802;16.114;2024-02-21T09:33:21;6.30;;;2.92;;
48623;SDS011;75490;45.802;16.114;2024-02-21T09:35:47;7.30;;;2.83;;
48623;SDS011;75490;45.802;16.114;2024-02-21T09:38:15;7.38;;;2.80;;
48623;SDS011;75490;45.802;16.114;2024-02-21T09:40:41;5.72;;;3.17;;
48623;SDS011;75490;45.802;16.114;2024-02-21T09:43:09;7.63;;;3.05;;
48623;SDS011;75490;45.802;16.114;2024-02-21T09:45:35;5.95;;;3.13;;
48623;SDS011;75490;45.802;16.114;2024-02-21T09:50:50;5.20;;;2.65;;
48623;SDS011;75490;45.802;16.114;2024-02-21T09:53:19;5.80;;;2.85;;
48623;SDS011;75490;45.802;16.114;2024-02-21T09:55:47;6.05;;;2.65;;
48623;SDS011;75490;45.802;16.114;2024-02-21T09:58:15;5.38;;;2.22;;
48623;SDS011;75490;45.802;16.114;2024-02-21T10:00:42;5.43;;;2.72;;
48623;SDS011;75490;45.802;16.114;2024-02-21T10:03:08;5.15;;;2.65;;
48623;SDS011;75490;45.802;16.114;2024-02-21T10:05:36;5.55;;;3.17;;
48623;SDS011;75490;45.802;16.114;2024-02-21T10:08:03;4.55;;;2.40;;
48623;SDS011;75490;45.802;16.114;2024-02-21T10:10:40;7.60;;;3.58;;
48623;SDS011;75490;45.802;16.114;2024-02-21T10:13:09;7.07;;;2.65;;
48623;SDS011;75490;45.802;16.114;2024-02-21T10:15:37;5.85;;;2.30;;
48623;SDS011;75490;45.802;16.114;2024-02-21T10:18:04;6.28;;;2.10;;
48623;SDS011;75490;45.802;16.114;2024-02-21T10:20:33;6.22;;;2.17;;
48623;SDS011;75490;45.802;16.114;2024-02-21T10:23:01;4.70;;;2.17;;
48623;SDS011;75490;45.802;16.114;2024-02-21T10:25:40;5.63;;;2.27;;
48623;SDS011;75490;45.802;16.114;2024-02-21T10:28:12;4.78;;;2.08;;
48623;SDS011;75490;45.802;16.114;2024-02-21T10:30:48;5.03;;;1.92;;
48623;SDS011;75490;45.802;16.114;2024-02-21T10:33:16;5.25;;;2.65;;
48623;SDS011;75490;45.802;16.114;2024-02-21T10:35:43;5.10;;;2.05;;
48623;SDS011;75490;45.802;16.114;2024-02-21T10:38:09;6.00;;;2.42;;
48623;SDS011;75490;45.802;16.114;2024-02-21T10:40:36;5.72;;;2.00;;
48623;SDS011;75490;45.802;16.114;2024-02-21T10:43:03;5.13;;;2.65;;
48623;SDS011;75490;45.802;16.114;2024-02-21T10:45:33;5.00;;;2.22;;
48623;SDS011;75490;45.802;16.114;2024-02-21T10:48:05;6.65;;;2.05;;
48623;SDS011;75490;45.802;16.114;2024-02-21T10:50:36;6.72;;;2.45;;
48623;SDS011;75490;45.802;16.114;2024-02-21T10:53:29;4.93;;;2.10;;
48623;SDS011;75490;45.802;16.114;2024-02-21T10:56:16;5.38;;;2.15;;
48623;SDS011;75490;45.802;16.114;2024-02-21T10:58:52;4.65;;;2.20;;
48623;SDS011;75490;45.802;16.114;2024-02-21T11:01:19;6.15;;;2.22;;
48623;SDS011;75490;45.802;16.114;2024-02-21T11:03:46;5.75;;;2.30;;
48623;SDS011;75490;45.802;16.114;2024-02-21T11:06:16;7.13;;;2.60;;
48623;SDS011;75490;45.802;16.114;2024-02-21T11:08:44;5.45;;;2.53;;
48623;SDS011;75490;45.802;16.114;2024-02-21T11:11:14;5.65;;;2.13;;
48623;SDS011;75490;45.802;16.114;2024-02-21T11:13:45;5.65;;;2.40;;
48623;SDS011;75490;45.802;16.114;2024-02-21T11:16:21;5.47;;;2.28;;
48623;SDS011;75490;45.802;16.114;2024-02-21T11:18:49;5.53;;;2.28;;
48623;SDS011;75490;45.802;16.114;2024-02-21T11:21:16;5.45;;;2.35;;
48623;SDS011;75490;45.802;16.114;2024-02-21T11:23:43;7.10;;;2.90;;
48623;SDS011;75490;45.802;16.114;2024-02-21T11:26:10;6.07;;;2.22;;
48623;SDS011;75490;45.802;16.114;2024-02-21T11:28:55;5.82;;;2.58;;
48623;SDS011;75490;45.802;16.114;2024-02-21T11:31:23;6.30;;;2.72;;
48623;SDS011;75490;45.802;16.114;2024-02-21T11:33:50;5.78;;;2.58;;
48623;SDS011;75490;45.802;16.114;2024-02-21T11:36:27;6.43;;;1.90;;
48623;SDS011;75490;45.802;16.114;2024-02-21T11:38:54;6.28;;;1.80;;
48623;SDS011;75490;45.802;16.114;2024-02-21T11:41:21;5.90;;;2.30;;
48623;SDS011;75490;45.802;16.114;2024-02-21T11:43:48;5.15;;;2.20;;
48623;SDS011;75490;45.802;16.114;2024-02-21T11:46:17;4.60;;;1.80;;
48623;SDS011;75490;45.802;16.114;2024-02-21T11:48:44;3.90;;;1.40;;
48623;SDS011;75490;45.802;16.114;2024-02-21T11:51:24;4.10;;;1.48;;
48623;SDS011;75490;45.802;16.114;2024-02-21T11:53:52;4.40;;;1.75;;
48623;SDS011;75490;45.802;16.114;2024-02-21T11:56:19;5.85;;;1.70;;
48623;SDS011;75490;45.802;16.114;2024-02-21T11:58:46;4.68;;;1.73;;
48623;SDS011;75490;45.802;16.114;2024-02-21T12:01:16;4.45;;;1.77;;
48623;SDS011;75490;45.802;16.114;2024-02-21T12:03:43;4.78;;;1.55;;
48623;SDS011;75490;45.802;16.114;2024-02-21T12:06:16;3.97;;;1.58;;
48623;SDS011;75490;45.802;16.114;2024-02-21T12:08:47;5.85;;;1.30;;
48623;SDS011;75490;45.802;16.114;2024-02-21T12:11:18;3.88;;;1.60;;
48623;SDS011;75490;45.802;16.114;2024-02-21T12:14:10;7.45;;;1.85;;
48623;SDS011;75490;45.802;16.114;2024-02-21T12:16:36;4.07;;;1.35;;
48623;SDS011;75490;45.802;16.114;2024-02-21T12:19:06;4.25;;;1.30;;
48623;SDS011;75490;45.802;16.114;2024-02-21T12:21:35;4.00;;;1.45;;
48623;SDS011;75490;45.802;16.114;2024-02-21T12:27:02;3.38;;;1.20;;
48623;SDS011;75490;45.802;16.114;2024-02-21T12:29:30;3.65;;;1.23;;
48623;SDS011;75490;45.802;16.114;2024-02-21T12:31:57;3.85;;;1.42;;
48623;SDS011;75490;45.802;16.114;2024-02-21T12:34:23;4.68;;;1.30;;
48623;SDS011;75490;45.802;16.114;2024-02-21T12:36:51;4.28;;;1.42;;
48623;SDS011;75490;45.802;16.114;2024-02-21T12:39:18;3.65;;;1.35;;
48623;SDS011;75490;45.802;16.114;2024-02-21T12:41:45;6.05;;;1.73;;
48623;SDS011;75490;45.802;16.114;2024-02-21T12:44:12;6.40;;;1.38;;
48623;SDS011;75490;45.802;16.114;2024-02-21T12:46:38;4.03;;;1.15;;
48623;SDS011;75490;45.802;16.114;2024-02-21T12:49:06;5.35;;;1.48;;
48623;SDS011;75490;45.802;16.114;2024-02-21T12:51:35;4.80;;;1.58;;
48623;SDS011;75490;45.802;16.114;2024-02-21T12:54:03;4.57;;;2.00;;
48623;SDS011;75490;45.802;16.114;2024-02-21T12:56:29;5.53;;;1.33;;
48623;SDS011;75490;45.802;16.114;2024-02-21T12:58:58;3.58;;;1.50;;
48623;SDS011;75490;45.802;16.114;2024-02-21T13:01:24;3.90;;;1.75;;
48623;SDS011;75490;45.802;16.114;2024-02-21T13:03:52;3.55;;;1.35;;
48623;SDS011;75490;45.802;16.114;2024-02-21T13:06:20;4.10;;;1.88;;
48623;SDS011;75490;45.802;16.114;2024-02-21T13:08:47;4.13;;;1.25;;
48623;SDS011;75490;45.802;16.114;2024-02-21T13:11:14;5.03;;;1.63;;
48623;SDS011;75490;45.802;16.114;2024-02-21T13:13:40;3.72;;;1.30;;
48623;SDS011;75490;45.802;16.114;2024-02-21T13:16:07;3.42;;;1.23;;
48623;SDS011;75490;45.802;16.114;2024-02-21T13:18:34;3.72;;;1.30;;
48623;SDS011;75490;45.802;16.114;2024-02-21T13:21:04;4.32;;;1.40;;
48623;SDS011;75490;45.802;16.114;2024-02-21T13:23:31;4.32;;;1.38;;
48623;SDS011;75490;45.802;16.114;2024-02-21T13:25:58;4.35;;;1.45;;
48623;SDS011;75490;45.802;16.114;2024-02-21T13:28:25;3.88;;;1.33;;
48623;SDS011;75490;45.802;16.114;2024-02-21T13:30:52;3.50;;;1.35;;
48623;SDS011;75490;45.802;16.114;2024-02-21T13:33:19;5.13;;;1.50;;
48623;SDS011;75490;45.802;16.114;2024-02-21T13:35:46;4.85;;;1.30;;
48623;SDS011;75490;45.802;16.114;2024-02-21T13:38:13;4.75;;;1.10;;
48623;SDS011;75490;45.802;16.114;2024-02-21T13:40:40;4.10;;;1.33;;
48623;SDS011;75490;45.802;16.114;2024-02-21T13:43:09;3.65;;;1.20;;
48623;SDS011;75490;45.802;16.114;2024-02-21T13:45:35;5.85;;;1.65;;
48623;SDS011;75490;45.802;16.114;2024-02-21T13:48:03;5.03;;;1.33;;
48623;SDS011;75490;45.802;16.114;2024-02-21T13:50:33;3.60;;;0.90;;
48623;SDS011;75490;45.802;16.114;2024-02-21T13:53:08;3.95;;;1.42;;
48623;SDS011;75490;45.802;16.114;2024-02-21T13:55:36;4.82;;;1.35;;
48623;SDS011;75490;45.802;16.114;2024-02-21T13:58:05;6.68;;;1.75;;
48623;SDS011;75490;45.802;16.114;2024-02-21T14:00:32;6.43;;;1.85;;
48623;SDS011;75490;45.802;16.114;2024-02-21T14:03:02;4.20;;;1.27;;
48623;SDS011;75490;45.802;16.114;2024-02-21T14:05:29;2.80;;;1.10;;
48623;SDS011;75490;45.802;16.114;2024-02-21T14:07:57;2.78;;;1.02;;
48623;SDS011;75490;45.802;16.114;2024-02-21T14:10:24;5.32;;;1.02;;
48623;SDS011;75490;45.802;16.114;2024-02-21T14:12:50;3.88;;;1.60;;
48623;SDS011;75490;45.802;16.114;2024-02-21T14:15:17;3.97;;;1.20;;
48623;SDS011;75490;45.802;16.114;2024-02-21T14:17:44;3.45;;;1.05;;
48623;SDS011;75490;45.802;16.114;2024-02-21T14:20:11;3.65;;;1.55;;
48623;SDS011;75490;45.802;16.114;2024-02-21T14:22:40;4.07;;;1.02;;
48623;SDS011;75490;45.802;16.114;2024-02-21T14:25:07;3.00;;;1.23;;
48623;SDS011;75490;45.802;16.114;2024-02-21T14:27:34;2.85;;;0.95;;
48623;SDS011;75490;45.802;16.114;2024-02-21T14:30:04;3.70;;;1.00;;
48623;SDS011;75490;45.802;16.114;2024-02-21T14:32:31;3.53;;;1.13;;
48623;SDS011;75490;45.802;16.114;2024-02-21T14:34:58;6.50;;;2.55;;